Time;durP1;ratioP1;P1;durP2;ratioP2;P2;SDS_P1;SDS_P2;PMS_P1;PMS_P2;Temp;Humidity;BMP_temperature;BMP_pressure;BME280_temperature;BME280_humidity;BME280_pressure;Samples;Min_cycle;Max_cycle;Signal;HPM_P1;HPM_P2
2021/10/15 00:01:15;;;;;;;2.87;2.50;;;;;;;5.98;90.62;94557.00;827411;71;32686;-76
2021/10/15 00:16:08;;;;;;;3.05;2.35;;;;;;;6.06;90.07;94539.57;833957;71;30067;-77
2021/10/15 00:31:15;;;;;;;2.60;2.40;;;;;;;6.03;90.55;94541.40;833946;71;32692;-77
2021/10/15 00:46:14;;;;;;;2.00;1.90;;;;;;;5.49;92.14;94526.10;834067;71;33189;-76
2021/10/15 01:01:09;;;;;;;2.40;2.30;;;;;;;5.40;93.83;94515.41;834369;71;30588;-77
2021/10/15 01:16:11;;;;;;;2.70;2.50;;;;;;;5.86;93.64;94496.53;834010;71;29840;-78
2021/10/15 01:31:14;;;;;;;2.80;2.27;;;;;;;6.08;90.79;94494.52;834056;71;32647;-77
2021/10/15 01:46:08;;;;;;;2.17;1.95;;;;;;;5.96;90.55;94486.16;828265;71;30250;-75
2021/10/15 02:01:08;;;;;;;1.82;1.72;;;;;;;6.20;90.13;94466.91;828235;71;29470;-76
2021/10/15 02:16:18;;;;;;;4.80;4.30;;;;;;;5.85;89.34;94465.05;827569;71;32680;-78
2021/10/15 02:31:08;;;;;;;1.77;1.60;;;;;;;5.41;90.82;94469.63;828303;71;29679;-75
2021/10/15 02:46:16;;;;;;;1.55;1.45;;;;;;;5.25;92.48;94449.00;834109;71;32477;-77
2021/10/15 03:02:08;;;;;;;2.00;1.90;;;;;;;4.88;95.15;94441.56;828091;71;30299;-77
2021/10/15 03:16:14;;;;;;;6.95;2.47;;;;;;;4.68;96.98;94441.46;833741;71;33080;-78
2021/10/15 03:31:08;;;;;;;3.17;2.45;;;;;;;4.53;99.26;94422.16;828274;71;29575;-77
2021/10/15 03:46:14;;;;;;;7.62;3.50;;;;;;;4.48;100.00;94410.94;827514;71;32687;-76
2021/10/15 04:01:08;;;;;;;4.53;4.12;;;;;;;4.81;100.00;94391.11;834066;71;29686;-77
2021/10/15 04:16:09;;;;;;;6.15;5.55;;;;;;;5.33;100.00;94398.59;828393;71;30041;-75
2021/10/15 04:31:45;;;;;;;8.35;6.62;;;;;;;5.51;100.00;94405.10;828804;71;29723;-77
2021/10/15 04:46:14;;;;;;;7.80;6.37;;;;;;;5.66;98.72;94406.97;829985;70;32624;-77
2021/10/15 05:01:10;;;;;;;7.42;6.15;;;;;;;5.25;100.00;94400.88;828223;71;30125;-78
2021/10/15 05:16:09;;;;;;;2.47;2.27;;;;;;;5.19;100.00;94426.89;833701;71;29702;-78
2021/10/15 05:31:08;;;;;;;4.28;3.87;;;;;;;5.14;100.00;94407.35;828049;71;30022;-76
2021/10/15 05:46:18;;;;;;;4.90;4.50;;;;;;;5.17;100.00;94409.95;827348;71;33196;-77
2021/10/15 06:01:08;;;;;;;5.10;4.00;;;;;;;5.12;100.00;94399.02;833784;71;29646;-78
2021/10/15 06:16:17;;;;;;;4.10;3.65;;;;;;;5.09;100.00;94392.25;835201;71;32617;-78
2021/10/15 06:31:08;;;;;;;2.80;2.60;;;;;;;5.30;100.00;94393.88;833888;71;29956;-77
2021/10/15 06:46:21;;;;;;;3.35;3.10;;;;;;;5.41;100.00;94383.77;833851;71;32721;-77
2021/10/15 07:01:09;;;;;;;8.20;7.50;;;;;;;5.47;100.00;94389.74;833876;71;28614;-76
2021/10/15 07:16:13;;;;;;;3.33;3.02;;;;;;;5.56;100.00;94375.20;824216;71;29249;-78
2021/10/15 07:31:08;;;;;;;3.37;2.58;;;;;;;5.50;100.00;94385.34;828160;71;29068;-78
2021/10/15 07:46:08;;;;;;;2.83;2.50;;;;;;;5.54;100.00;94381.70;833951;71;28791;-79
2021/10/15 08:01:09;;;;;;;3.20;3.00;;;;;;;5.53;100.00;94360.61;828113;71;29242;-77
2021/10/15 08:16:19;;;;;;;5.62;3.00;;;;;;;5.33;100.00;94341.36;826924;71;29312;-77
2021/10/15 08:31:14;;;;;;;4.22;3.80;;;;;;;5.69;100.00;94370.00;828057;71;31973;-77
2021/10/15 08:46:14;;;;;;;4.85;4.00;;;;;;;5.73;100.00;94359.85;827337;71;31774;-77
2021/10/15 08:47:19;;;;;;;5.12;4.30;;;;;;;5.69;100.00;94358.81;808616;73;25339;-77
2021/10/15 09:16:11;;;;;;;3.60;3.30;;;;;;;5.83;100.00;94363.76;833849;71;29207;-77
2021/10/15 09:31:08;;;;;;;4.62;4.17;;;;;;;6.03;100.00;94360.92;828235;71;28670;-77
2021/10/15 09:46:23;;;;;;;3.00;2.80;;;;;;;6.10;100.00;94367.94;827580;71;31804;-77
2021/10/15 10:01:20;;;;;;;4.22;3.87;;;;;;;6.32;100.00;94377.55;834143;71;31799;-76
2021/10/15 10:16:13;;;;;;;6.45;4.55;;;;;;;6.71;100.00;94370.44;828360;71;29289;-77
2021/10/15 10:31:24;;;;;;;12.33;9.48;;;;;;;7.19;100.00;94355.08;833941;71;31703;-75
2021/10/15 10:46:20;;;;;;;14.60;12.05;;;;;;;6.87;100.00;94350.80;828926;71;28350;-77
2021/10/15 11:01:27;;;;;;;10.70;8.83;;;;;;;6.80;100.00;94336.76;827545;71;32291;-76
2021/10/15 11:16:27;;;;;;;12.13;9.43;;;;;;;6.50;100.00;94317.56;828267;71;32412;-77
2021/10/15 11:31:14;;;;;;;12.50;9.55;;;;;;;6.44;100.00;94302.99;833776;71;33184;-77
2021/10/15 11:46:11;;;;;;;11.78;9.85;;;;;;;6.38;100.00;94258.45;828352;71;29181;-76
2021/10/15 12:01:23;;;;;;;12.30;8.33;;;;;;;6.46;100.00;94225.33;833972;71;32777;-76
2021/10/15 12:16:24;;;;;;;8.98;7.55;;;;;;;6.57;100.00;94198.70;828211;71;30277;-76
2021/10/15 12:31:25;;;;;;;8.50;7.65;;;;;;;6.76;100.00;94177.98;834109;71;32656;-75
2021/10/15 12:46:18;;;;;;;17.45;13.95;;;;;;;7.02;100.00;94173.38;833970;71;32803;-76
2021/10/15 13:01:09;;;;;;;17.65;13.78;;;;;;;7.36;100.00;94159.00;828428;71;29846;-76
2021/10/15 13:16:18;;;;;;;18.90;13.70;;;;;;;7.37;100.00;94177.51;834271;71;33224;-75
2021/10/15 13:31:08;;;;;;;17.27;13.45;;;;;;;7.61;100.00;94165.03;833905;71;29747;-78
2021/10/15 14:01:23;;;;;;;10.35;9.20;;;;;;;7.74;100.00;94163.58;828035;71;32778;-75
2021/10/15 14:16:18;;;;;;;10.08;9.28;;;;;;;7.80;98.92;94152.02;834011;71;32697;-77
2021/10/15 14:31:28;;;;;;;9.90;8.33;;;;;;;7.75;98.04;94129.36;826423;71;32886;-77
2021/10/15 14:46:09;;;;;;;8.50;7.60;;;;;;;7.42;99.50;94120.05;829360;71;30345;-74
2021/10/15 15:16:08;;;;;;;11.95;9.35;;;;;;;7.06;100.00;94096.13;828045;71;29315;-78
2021/10/15 15:31:09;;;;;;;18.15;9.08;;;;;;;7.22;100.00;94106.67;827922;71;30750;-77
2021/10/15 15:46:10;;;;;;;8.55;7.65;;;;;;;7.16;100.00;94107.00;833457;71;29815;-76
2021/10/15 16:01:15;;;;;;;8.25;7.03;;;;;;;7.18;100.00;94100.98;800142;74;32941;-74
2021/10/15 16:16:16;;;;;;;6.55;5.85;;;;;;;7.47;100.00;94119.75;827526;71;32661;-76
2021/10/15 16:31:12;;;;;;;6.72;6.05;;;;;;;6.97;100.00;94109.50;833919;71;30218;-77
2021/10/15 16:46:09;;;;;;;9.83;7.25;;;;;;;6.74;100.00;94112.30;823184;71;30181;-76
2021/10/15 17:01:15;;;;;;;9.93;8.60;;;;;;;6.99;100.00;94106.09;820710;71;32767;-76
2021/10/15 17:16:14;;;;;;;9.20;7.95;;;;;;;7.31;100.00;94100.85;827987;71;32767;-77
2021/10/15 17:31:14;;;;;;;9.60;7.92;;;;;;;7.57;100.00;94100.83;833857;71;33137;-79
2021/10/15 17:46:09;;;;;;;14.53;10.93;;;;;;;7.74;99.64;94091.77;828310;71;30547;-78
2021/10/15 18:01:18;;;;;;;17.42;14.83;;;;;;;7.89;98.52;94092.14;819472;71;33225;-81
2021/10/15 18:16:16;;;;;;;19.92;14.80;;;;;;;7.99;97.48;94067.95;827696;71;33222;-78
2021/10/15 18:31:18;;;;;;;15.90;11.35;;;;;;;8.09;96.26;94059.21;834090;71;33260;-79
2021/10/15 18:46:14;;;;;;;13.45;11.08;;;;;;;8.16;95.11;94066.16;819824;71;29678;-78
2021/10/15 19:01:19;;;;;;;11.97;9.40;;;;;;;8.20;94.27;94061.15;824006;71;32738;-77
2021/10/15 19:16:10;;;;;;;14.35;11.08;;;;;;;8.20;94.41;94037.62;826972;71;30288;-79
2021/10/15 19:31:14;;;;;;;9.65;7.80;;;;;;;8.30;94.13;94046.63;821540;71;33140;-76
2021/10/15 19:46:08;;;;;;;9.00;8.10;;;;;;;8.39;93.70;94034.48;823243;71;29451;-79
2021/10/15 20:01:08;;;;;;;8.45;7.65;;;;;;;8.46;93.46;94018.98;821571;71;30220;-79
2021/10/15 20:16:12;;;;;;;12.37;10.03;;;;;;;8.52;93.39;94020.46;834050;71;31844;-81
2021/10/15 20:31:15;;;;;;;13.20;10.28;;;;;;;8.53;93.10;94013.62;827471;71;32731;-77
2021/10/15 20:46:19;;;;;;;11.68;9.38;;;;;;;8.56;92.92;94047.59;827660;71;33168;-78
2021/10/15 21:16:10;;;;;;;6.25;5.53;;;;;;;8.54;93.45;93989.58;828429;71;29716;-80
2021/10/15 21:31:59;;;;;;;7.62;5.92;;;;;;;8.60;93.83;93997.04;827345;71;32801;-81
2021/10/15 21:46:15;;;;;;;7.05;6.03;;;;;;;8.61;93.01;93989.42;849582;69;30917;-82
2021/10/15 22:01:09;;;;;;;7.90;6.75;;;;;;;8.56;93.12;93979.06;828366;71;29701;-80
2021/10/15 22:16:08;;;;;;;5.12;4.60;;;;;;;8.56;93.04;93986.91;828217;71;28906;-80
2021/10/15 22:31:13;;;;;;;4.33;3.92;;;;;;;8.56;93.20;93985.60;834000;71;30952;-79
2021/10/15 22:46:09;;;;;;;3.85;3.50;;;;;;;8.57;93.09;93985.83;828084;71;29065;-80
2021/10/15 23:01:20;;;;;;;3.60;3.30;;;;;;;8.59;93.15;93967.25;828765;71;31700;-80
2021/10/15 23:16:08;;;;;;;2.60;2.40;;;;;;;;;;828547;71;28972;-79
2021/10/15 23:31:18;;;;;;;2.80;2.60;;;;;;;;;;827882;71;31702;-80
2021/10/15 23:46:10;;;;;;;2.98;2.70;;;;;;;8.66;92.85;93971.59;828390;71;29201;-79
